メインページ
METAR-TAF:

METAR-TAF

空港 :

コーク空港

コーク, アイルランド

緯度: 51-51N, 経度: 008-29W, 海抜: 153m

現時点の気象観測

当レポートは31分前の23:00(UTC)に作成
西/南西の風 4kt
気温 3°C
湿度 93%
気圧 999 hPa
視程10km以上
高度3000ftの雲はほとんどない

METAR: EICK 152300Z 24004KT 9999 FEW030 03/02 Q0999 NOSIG

時間: 23:31 (23:31 UTC)

予報

当レポートは6時間31分前の17:00(UTC)に作成
予報は15日の 18時(UTC)から 16日の 18時(UTC)まで有効
西の風 26kt、最大37ktの突風を伴う
視程10km以上
高度1200ftの雲は散在している
高度2000ftの千切れ雲あり
15日の 18時(UTC)から 15日の 20時(UTC)まで徐々に
西/南西の風 20kt、最大32ktの突風を伴う
15日の 20時(UTC)から 15日の 23時(UTC)まで徐々に
西/南西の風 12kt
16日の 00時(UTC)から 16日の 03時(UTC)まで徐々に
南西の風 8kt
16日の 04時(UTC)から 16日の 06時(UTC)まで徐々に
の風 12kt
視程: 6000m
高度700ftの雲は散在している
高度1200ftの千切れ雲あり
小雨
16日の 06時(UTC)から 16日の 11時(UTC)まで一時的に
の風 15kt、最大25ktの突風を伴う
視程: 3000m
高度700ftの千切れ雲あり
高度1800ftの雲は散在している, 積乱雲.
16日の 11時(UTC)から 16日の 13時(UTC)まで徐々に
西/南西の風 12kt
視程10km以上
高度1200ftの雲は散在している
高度2500ftの千切れ雲あり
確率 40% :
16日の 15時(UTC)から 16日の 18時(UTC)まで一時的に
高度1400ftの千切れ雲あり
弱いにわか雨

TAF: EICK 151700Z 1518/1618 28026G37KT 9999 SCT012 BKN020 BECMG 1518/1520 25020G32KT BECMG 1520/1523 25012KT BECMG 1600/1603 22008KT BECMG 1604/1606 19012KT 6000 -RA SCT007 BKN012 TEMPO 1606/1611 19015G25KT 3000 RA BKN007 SCT018CB BECMG 1611/1613 25012KT 9999 NSW SCT012 BKN025 PROB40 TEMPO 1615/1618 -SHRA BKN014

4,000以上の空港の気象観測と天気予報(METAR報とTAF報)

利用可能な観測所は地図上に黄色い丸と赤い丸で示す。

丸の上にカーソルを重ねると観測所名を参照できる。

次にクリックすると気象観測と天気予報を参照できる。

マップの切り替え:黒色「×」印の緑ボタンをクリックして拡大、「-」印の緑ボタンをクリックして縮小、緑色の三角印をクリックして隣りの地図に切り替え


METAR-TAF: